Time;durP1;ratioP1;P1;durP2;ratioP2;P2;SDS_P1;SDS_P2;PMS_P1;PMS_P2;Temp;Humidity;BMP_temperature;BMP_pressure;BME280_temperature;BME280_humidity;BME280_pressure;Samples;Min_cycle;Max_cycle;Signal;HPM_P1;HPM_P2
2022/04/26 03:36:52;;;;;;;;;;;18.60;59.20;;;;;;5004558;28;1196;-69
2022/04/26 03:39:17;;;;;;;;;;;18.60;59.20;;;;;;4989758;28;1297;-69
2022/04/26 03:41:43;;;;;;;;;;;18.60;59.20;;;;;;5012852;28;1952;-69
2022/04/26 03:44:09;;;;;;;;;;;18.60;59.20;;;;;;5012344;28;1378;-70
2022/04/26 03:46:35;;;;;;;;;;;18.60;59.20;;;;;;5012898;28;1302;-68
2022/04/26 03:49:00;;;;;;;;;;;18.60;59.30;;;;;;5012159;28;1342;-70
2022/04/26 03:51:26;;;;;;;;;;;18.60;59.30;;;;;;5012278;28;1254;-70
2022/04/26 03:53:51;;;;;;;;;;;18.60;59.20;;;;;;5012758;28;1332;-70
2022/04/26 03:56:16;;;;;;;;;;;18.60;59.20;;;;;;5012456;28;1317;-72
2022/04/26 03:58:42;;;;;;;;;;;18.60;59.20;;;;;;5011927;28;1318;-71
2022/04/26 04:01:07;;;;;;;;;;;18.50;59.20;;;;;;5011792;28;1971;-72
2022/04/26 04:03:36;;;;;;;;;;;18.60;59.20;;;;;;5006186;28;1316;-72
2022/04/26 04:06:01;;;;;;;;;;;18.50;59.20;;;;;;4992710;28;978;-72
2022/04/26 04:08:26;;;;;;;;;;;18.50;59.20;;;;;;4992656;28;788;-70
2022/04/26 04:10:52;;;;;;;;;;;18.60;59.30;;;;;;4992882;28;1208;-70
2022/04/26 04:13:18;;;;;;;;;;;18.60;59.20;;;;;;4992881;28;883;-71
2022/04/26 04:15:43;;;;;;;;;;;18.60;59.20;;;;;;4992627;28;840;-71
2022/04/26 04:19:17;;;;;;;;;;;18.60;59.20;;;;;;5010841;28;1140;-71
2022/04/26 04:20:54;;;;;;;;;;;18.60;59.10;;;;;;5011789;28;1379;-72
2022/04/26 04:23:20;;;;;;;;;;;18.60;59.10;;;;;;5012557;28;1906;-70
2022/04/26 04:25:46;;;;;;;;;;;18.60;59.10;;;;;;5012431;28;811;-70
2022/04/26 04:28:11;;;;;;;;;;;18.60;59.00;;;;;;4999886;28;1176;-69
2022/04/26 04:30:37;;;;;;;;;;;18.60;59.00;;;;;;5012188;28;1276;-69
2022/04/26 04:33:02;;;;;;;;;;;18.60;59.10;;;;;;5011755;28;848;-70
2022/04/26 04:35:28;;;;;;;;;;;18.60;59.10;;;;;;5012137;28;796;-70
2022/04/26 04:37:53;;;;;;;;;;;18.60;59.00;;;;;;5012089;28;1124;-69
2022/04/26 04:40:19;;;;;;;;;;;18.60;59.00;;;;;;5012079;28;1271;-72
2022/04/26 04:42:44;;;;;;;;;;;18.60;59.00;;;;;;5012194;28;1948;-70
2022/04/26 04:45:10;;;;;;;;;;;18.70;59.10;;;;;;5027965;28;1090;-72
2022/04/26 04:47:35;;;;;;;;;;;18.60;59.00;;;;;;5011868;28;963;-71
2022/04/26 04:50:01;;;;;;;;;;;18.70;59.10;;;;;;5010507;28;1306;-69
2022/04/26 04:52:26;;;;;;;;;;;18.60;59.00;;;;;;5012109;28;970;-70
2022/04/26 04:54:52;;;;;;;;;;;18.70;59.10;;;;;;5012525;28;998;-72
2022/04/26 04:57:17;;;;;;;;;;;18.60;59.00;;;;;;5011698;28;938;-71
2022/04/26 04:59:42;;;;;;;;;;;18.60;59.00;;;;;;5027385;28;1212;-70
2022/04/26 05:02:08;;;;;;;;;;;18.60;59.00;;;;;;5011913;28;1902;-69
2022/04/26 05:04:34;;;;;;;;;;;18.60;59.00;;;;;;5030606;28;819;-69
2022/04/26 05:06:59;;;;;;;;;;;18.60;59.00;;;;;;5015765;28;866;-68
2022/04/26 05:09:24;;;;;;;;;;;18.60;59.00;;;;;;5015421;28;1201;-73
2022/04/26 05:11:50;;;;;;;;;;;18.60;59.00;;;;;;5015724;28;645;-69
2022/04/26 05:14:15;;;;;;;;;;;18.60;59.00;;;;;;5015670;28;848;-69
2022/04/26 05:16:41;;;;;;;;;;;18.70;59.00;;;;;;5015698;28;808;-69
2022/04/26 05:19:06;;;;;;;;;;;18.70;59.00;;;;;;5048567;22;2168;-72
2022/04/26 05:21:32;;;;;;;;;;;18.70;58.90;;;;;;5031813;28;2279;-72
2022/04/26 05:26:41;;;;;;;;;;;18.70;57.00;;;;;;5031620;28;1391;-72
2022/04/26 05:29:07;;;;;;;;;;;18.70;56.60;;;;;;5022238;28;1193;-72
2022/04/26 05:31:32;;;;;;;;;;;18.80;55.90;;;;;;5024652;28;1094;-72
2022/04/26 05:33:58;;;;;;;;;;;18.80;56.10;;;;;;5023680;28;2049;-71
2022/04/26 05:36:23;;;;;;;;;;;18.80;56.20;;;;;;5014502;28;1710;-71
2022/04/26 05:38:48;;;;;;;;;;;18.80;56.10;;;;;;5014408;28;1296;-71
2022/04/26 05:41:14;;;;;;;;;;;18.80;56.00;;;;;;5014725;28;1898;-70
2022/04/26 05:43:40;;;;;;;;;;;18.90;56.20;;;;;;5015914;28;1260;-72
2022/04/26 05:46:09;;;;;;;;;;;18.90;56.30;;;;;;5015701;28;918;-75
2022/04/26 05:48:34;;;;;;;;;;;18.90;56.30;;;;;;5047564;28;1329;-70
2022/04/26 05:51:00;;;;;;;;;;;18.90;56.30;;;;;;5014506;28;884;-69
2022/04/26 05:53:25;;;;;;;;;;;18.90;56.50;;;;;;5015760;28;792;-69
2022/04/26 05:55:50;;;;;;;;;;;18.90;56.50;;;;;;5005315;28;1204;-71
2022/04/26 05:58:16;;;;;;;;;;;18.90;56.50;;;;;;4994599;28;1277;-70
2022/04/26 06:00:44;;;;;;;;;;;18.90;56.60;;;;;;4995883;28;875;-72
2022/04/26 06:03:09;;;;;;;;;;;18.90;56.60;;;;;;4994962;28;1895;-73
2022/04/26 06:05:35;;;;;;;;;;;18.90;56.70;;;;;;4995730;28;903;-73
2022/04/26 06:08:00;;;;;;;;;;;19.00;56.80;;;;;;4995042;28;1190;-73
2022/04/26 06:10:26;;;;;;;;;;;19.00;56.80;;;;;;4995020;28;828;-72
2022/04/26 06:12:52;;;;;;;;;;;19.00;56.80;;;;;;4993748;28;836;-72
2022/04/26 06:15:18;;;;;;;;;;;19.00;56.80;;;;;;4978093;28;1470;-72
2022/04/26 06:17:43;;;;;;;;;;;19.00;56.80;;;;;;4985757;28;1216;-72
2022/04/26 06:20:09;;;;;;;;;;;19.00;56.90;;;;;;5015461;28;1057;-72
2022/04/26 06:22:34;;;;;;;;;;;19.00;56.80;;;;;;5013999;28;1959;-72
2022/04/26 06:25:00;;;;;;;;;;;19.00;56.90;;;;;;5015313;28;800;-72
2022/04/26 06:27:25;;;;;;;;;;;19.00;56.90;;;;;;5013603;28;1282;-72
2022/04/26 06:29:51;;;;;;;;;;;19.00;56.90;;;;;;5015041;28;831;-72
2022/04/26 06:32:16;;;;;;;;;;;19.00;57.00;;;;;;5030284;28;799;-72
2022/04/26 06:34:41;;;;;;;;;;;19.00;57.00;;;;;;5013694;28;1188;-72
2022/04/26 06:37:07;;;;;;;;;;;19.00;57.00;;;;;;5008665;28;1190;-72
2022/04/26 06:39:32;;;;;;;;;;;19.00;57.00;;;;;;5014814;28;1205;-72
2022/04/26 06:41:58;;;;;;;;;;;19.00;57.00;;;;;;5013445;28;1902;-72
2022/04/26 06:44:25;;;;;;;;;;;19.00;57.00;;;;;;5013775;28;707;-72
2022/04/26 06:46:50;;;;;;;;;;;19.10;57.10;;;;;;5014834;28;884;-72
2022/04/26 06:49:15;;;;;;;;;;;19.10;57.10;;;;;;5014624;28;1301;-72
2022/04/26 06:51:42;;;;;;;;;;;19.10;57.10;;;;;;5014790;28;970;-72
2022/04/26 06:54:07;;;;;;;;;;;19.10;57.10;;;;;;5014759;28;906;-72
2022/04/26 06:56:33;;;;;;;;;;;19.10;57.10;;;;;;5014962;28;841;-71
2022/04/26 06:58:58;;;;;;;;;;;19.00;57.10;;;;;;5014648;28;1199;-74
2022/04/26 07:01:24;;;;;;;;;;;19.00;57.10;;;;;;5013529;28;1946;-71
2022/04/26 07:03:49;;;;;;;;;;;19.10;57.10;;;;;;5015419;28;1425;-73
2022/04/26 07:06:15;;;;;;;;;;;19.10;57.10;;;;;;5016972;28;1248;-73
2022/04/26 07:08:40;;;;;;;;;;;19.10;57.10;;;;;;5012509;28;1996;-72
2022/04/26 07:11:06;;;;;;;;;;;19.10;57.30;;;;;;5021649;28;1135;-73
2022/04/26 07:13:31;;;;;;;;;;;19.10;57.70;;;;;;5019816;28;1337;-73
2022/04/26 07:15:56;;;;;;;;;;;19.20;57.70;;;;;;5011262;28;1952;-72
2022/04/26 07:18:22;;;;;;;;;;;19.20;57.80;;;;;;5016013;28;1361;-73
2022/04/26 07:20:47;;;;;;;;;;;19.20;57.90;;;;;;5019234;28;1600;-73
2022/04/26 07:23:13;;;;;;;;;;;19.30;58.40;;;;;;5022921;28;1969;-72
2022/04/26 07:25:39;;;;;;;;;;;19.40;58.30;;;;;;5024421;28;1243;-72
2022/04/26 07:28:04;;;;;;;;;;;19.40;58.20;;;;;;5021204;28;1390;-72
2022/04/26 07:30:36;;;;;;;;;;;19.50;58.80;;;;;;5030562;28;1192;-72
2022/04/26 07:35:49;;;;;;;;;;;19.70;58.40;;;;;;5032872;28;756;-73
2022/04/26 07:38:15;;;;;;;;;;;19.80;58.30;;;;;;5015001;28;1303;-72
2022/04/26 07:40:40;;;;;;;;;;;19.80;58.10;;;;;;5029140;28;939;-72
2022/04/26 07:43:06;;;;;;;;;;;19.90;57.80;;;;;;5013796;28;1911;-73
2022/04/26 07:45:31;;;;;;;;;;;20.00;57.70;;;;;;5013984;28;766;-73
2022/04/26 07:47:58;;;;;;;;;;;20.00;57.60;;;;;;5013350;28;1210;-73
2022/04/26 07:50:23;;;;;;;;;;;20.10;57.60;;;;;;5013772;28;1041;-72
2022/04/26 07:52:49;;;;;;;;;;;20.10;57.70;;;;;;5013963;28;831;-72
2022/04/26 07:55:14;;;;;;;;;;;20.10;57.70;;;;;;5028939;28;895;-72
2022/04/26 07:57:40;;;;;;;;;;;20.20;57.70;;;;;;5028683;28;1287;-71
2022/04/26 08:00:05;;;;;;;;;;;20.20;57.70;;;;;;5028931;28;899;-72
2022/04/26 08:02:31;;;;;;;;;;;20.20;57.80;;;;;;5013582;28;1961;-72
2022/04/26 08:05:01;;;;;;;;;;;20.30;57.70;;;;;;5013692;28;923;-72
2022/04/26 08:07:28;;;;;;;;;;;20.30;57.80;;;;;;5027947;28;1205;-72
2022/04/26 08:09:54;;;;;;;;;;;20.30;57.80;;;;;;5012551;28;1188;-72
2022/04/26 08:12:20;;;;;;;;;;;20.30;57.80;;;;;;5013697;28;803;-72
2022/04/26 08:14:45;;;;;;;;;;;20.30;57.90;;;;;;5028673;28;796;-72
2022/04/26 08:17:11;;;;;;;;;;;20.30;58.10;;;;;;5028138;28;1552;-72
2022/04/26 08:19:37;;;;;;;;;;;20.30;58.00;;;;;;4995736;28;1315;-72
2022/04/26 08:22:02;;;;;;;;;;;20.30;58.10;;;;;;5013525;28;1977;-72
2022/04/26 08:27:30;;;;;;;;;;;20.40;58.10;;;;;;5013149;28;1396;-72
2022/04/26 08:29:56;;;;;;;;;;;20.40;58.10;;;;;;5013296;28;823;-72
2022/04/26 08:32:22;;;;;;;;;;;20.40;58.10;;;;;;5013521;28;778;-72
2022/04/26 08:34:47;;;;;;;;;;;20.40;58.30;;;;;;5013095;28;804;-72
2022/04/26 08:37:13;;;;;;;;;;;20.40;58.30;;;;;;5022773;28;1421;-72
2022/04/26 08:39:38;;;;;;;;;;;20.40;58.30;;;;;;5017193;28;1181;-72
2022/04/26 08:42:04;;;;;;;;;;;20.40;58.30;;;;;;5016024;28;1965;-72
2022/04/26 08:44:30;;;;;;;;;;;20.40;58.30;;;;;;5017173;28;882;-72
2022/04/26 08:52:24;;;;;;;;;;;20.40;58.40;;;;;;5016143;28;737;-72
2022/04/26 08:54:49;;;;;;;;;;;20.40;58.40;;;;;;5017141;28;899;-72
2022/04/26 08:57:15;;;;;;;;;;;20.40;58.50;;;;;;5016066;28;2401;-72
2022/04/26 08:59:47;;;;;;;;;;;20.40;58.60;;;;;;5014763;28;1293;-72
2022/04/26 09:02:19;;;;;;;;;;;20.40;58.70;;;;;;4999104;28;1952;-72
2022/04/26 09:04:45;;;;;;;;;;;20.40;58.70;;;;;;5015342;28;1214;-72
2022/04/26 09:07:12;;;;;;;;;;;20.40;58.70;;;;;;5015369;28;894;-72
2022/04/26 09:09:38;;;;;;;;;;;20.40;58.80;;;;;;5016614;28;1273;-72
2022/04/26 09:12:09;;;;;;;;;;;20.30;59.40;;;;;;5014777;28;2070;-72
2022/04/26 09:14:35;;;;;;;;;;;20.30;58.80;;;;;;5015224;28;1544;-72
2022/04/26 09:17:05;;;;;;;;;;;20.30;58.90;;;;;;5015444;28;1613;-72
2022/04/26 09:19:48;;;;;;;;;;;20.30;59.00;;;;;;5031552;28;1221;-72
2022/04/26 09:22:18;;;;;;;;;;;20.30;59.00;;;;;;5016505;28;1906;-73
2022/04/26 09:24:53;;;;;;;;;;;20.30;59.10;;;;;;5016642;28;1605;-71
2022/04/26 09:27:18;;;;;;;;;;;20.30;59.20;;;;;;5015048;28;1438;-71
2022/04/26 09:29:47;;;;;;;;;;;20.20;59.10;;;;;;5016298;28;1217;-71
2022/04/26 09:32:12;;;;;;;;;;;20.20;59.20;;;;;;5031786;28;812;-72
2022/04/26 09:34:38;;;;;;;;;;;20.20;59.30;;;;;;5016146;28;884;-72
2022/04/26 09:37:04;;;;;;;;;;;20.20;59.30;;;;;;5027428;28;1456;-72
2022/04/26 09:39:30;;;;;;;;;;;20.20;59.40;;;;;;5015966;28;1272;-72
2022/04/26 09:41:55;;;;;;;;;;;20.20;59.40;;;;;;5014899;28;1882;-72
2022/04/26 09:44:30;;;;;;;;;;;20.20;59.50;;;;;;5014777;28;1702;-72
2022/04/26 09:46:56;;;;;;;;;;;20.20;59.50;;;;;;5014915;28;1466;-73
2022/04/26 09:49:22;;;;;;;;;;;20.10;59.50;;;;;;5015147;28;1223;-73
2022/04/26 09:51:49;;;;;;;;;;;20.10;59.50;;;;;;5014696;28;1188;-73
2022/04/26 09:54:14;;;;;;;;;;;20.10;59.60;;;;;;5016117;28;835;-74
2022/04/26 09:56:40;;;;;;;;;;;20.10;59.70;;;;;;5014684;28;1231;-73
2022/04/26 09:59:05;;;;;;;;;;;20.10;59.70;;;;;;5014308;28;1281;-72
2022/04/26 10:01:34;;;;;;;;;;;20.10;59.80;;;;;;5015806;28;1937;-74
2022/04/26 10:04:03;;;;;;;;;;;20.10;59.80;;;;;;5015750;28;1010;-75
2022/04/26 10:06:38;;;;;;;;;;;20.10;59.90;;;;;;5015993;28;970;-74
2022/04/26 10:09:04;;;;;;;;;;;20.10;59.90;;;;;;5030872;28;1219;-74
2022/04/26 10:11:30;;;;;;;;;;;20.10;60.10;;;;;;5031052;28;804;-73
2022/04/26 10:13:55;;;;;;;;;;;20.10;60.20;;;;;;5015494;28;734;-73
2022/04/26 10:16:23;;;;;;;;;;;20.10;60.20;;;;;;5030914;28;755;-72
2022/04/26 10:18:49;;;;;;;;;;;20.10;60.30;;;;;;5016475;28;1468;-73
2022/04/26 10:21:21;;;;;;;;;;;20.10;60.30;;;;;;5014219;28;1938;-74
2022/04/26 10:24:03;;;;;;;;;;;20.10;60.40;;;;;;5015401;28;804;-73
2022/04/26 10:26:30;;;;;;;;;;;20.10;60.40;;;;;;5015508;28;1438;-74
2022/04/26 10:29:01;;;;;;;;;;;20.10;60.40;;;;;;5030438;28;1731;-73
2022/04/26 10:31:34;;;;;;;;;;;20.10;60.50;;;;;;5029877;28;847;-74
2022/04/26 10:34:00;;;;;;;;;;;20.10;60.40;;;;;;5015287;28;855;-74
2022/04/26 10:36:28;;;;;;;;;;;20.10;60.30;;;;;;5015179;28;1421;-73
2022/04/26 10:39:05;;;;;;;;;;;20.10;60.30;;;;;;5014841;28;1216;-74
2022/04/26 10:41:34;;;;;;;;;;;20.10;60.40;;;;;;5015067;28;1947;-73
2022/04/26 10:44:21;;;;;;;;;;;20.10;60.30;;;;;;5013869;28;820;-73
2022/04/26 10:46:50;;;;;;;;;;;20.10;60.40;;;;;;5008337;28;1283;-74
2022/04/26 10:49:25;;;;;;;;;;;20.10;60.40;;;;;;5014742;28;1314;-74
2022/04/26 10:51:55;;;;;;;;;;;20.10;60.40;;;;;;5015063;28;890;-74
2022/04/26 10:54:39;;;;;;;;;;;20.10;60.30;;;;;;5014844;28;835;-74
2022/04/26 10:57:05;;;;;;;;;;;20.10;60.40;;;;;;5014869;28;1009;-73
2022/04/26 10:59:30;;;;;;;;;;;20.10;60.40;;;;;;5014654;28;1314;-74
2022/04/26 11:01:55;;;;;;;;;;;20.10;60.40;;;;;;5013774;28;1890;-74
2022/04/26 11:04:21;;;;;;;;;;;20.10;60.50;;;;;;5014649;28;1073;-72
2022/04/26 11:06:47;;;;;;;;;;;20.10;60.50;;;;;;5013255;28;812;-71
2022/04/26 11:09:14;;;;;;;;;;;20.10;60.50;;;;;;5014377;28;1294;-72
2022/04/26 11:11:48;;;;;;;;;;;20.10;60.70;;;;;;5013385;28;840;-73
2022/04/26 11:14:14;;;;;;;;;;;20.00;60.90;;;;;;5013304;28;1084;-73
2022/04/26 11:17:01;;;;;;;;;;;20.00;61.10;;;;;;5014457;28;871;-73
2022/04/26 11:19:33;;;;;;;;;;;20.00;62.00;;;;;;5015559;23;3530;-69
2022/04/26 11:22:05;;;;;;;;;;;20.00;61.50;;;;;;4997465;28;2075;-69
2022/04/26 11:30:02;;;;;;;;;;;19.90;61.70;;;;;;4993282;28;1510;-69
2022/04/26 11:32:29;;;;;;;;;;;19.90;61.80;;;;;;4992856;28;1081;-69
2022/04/26 11:34:54;;;;;;;;;;;19.90;61.80;;;;;;4994159;28;1347;-69
2022/04/26 11:37:20;;;;;;;;;;;19.90;61.80;;;;;;4993360;28;1520;-70
2022/04/26 11:39:46;;;;;;;;;;;19.90;61.80;;;;;;4992974;28;1400;-69
2022/04/26 11:42:12;;;;;;;;;;;19.90;61.70;;;;;;4994145;28;1898;-69
2022/04/26 11:44:54;;;;;;;;;;;19.90;61.70;;;;;;4992910;28;1406;-69
2022/04/26 11:47:20;;;;;;;;;;;19.90;61.70;;;;;;5008907;28;1097;-69
2022/04/26 11:49:45;;;;;;;;;;;19.90;61.80;;;;;;5009305;28;1311;-69
2022/04/26 11:52:10;;;;;;;;;;;19.90;61.70;;;;;;4993938;28;993;-69
2022/04/26 11:54:36;;;;;;;;;;;19.90;61.90;;;;;;5009143;28;784;-69
2022/04/26 11:57:03;;;;;;;;;;;19.90;61.90;;;;;;4993765;28;1061;-69
2022/04/26 11:59:28;;;;;;;;;;;19.90;61.90;;;;;;4993795;28;1295;-69
2022/04/26 12:01:54;;;;;;;;;;;19.80;61.70;;;;;;5008988;28;1891;-69
2022/04/26 12:04:19;;;;;;;;;;;19.90;61.90;;;;;;5009045;28;807;-70
2022/04/26 12:06:44;;;;;;;;;;;19.90;61.80;;;;;;5008864;28;895;-69
2022/04/26 12:09:15;;;;;;;;;;;19.90;61.80;;;;;;5008300;28;1200;-69
2022/04/26 12:11:41;;;;;;;;;;;19.90;61.80;;;;;;4992513;28;1885;-69
2022/04/26 12:14:11;;;;;;;;;;;19.90;61.80;;;;;;4993697;28;819;-69
2022/04/26 12:16:37;;;;;;;;;;;19.90;61.80;;;;;;4993511;28;882;-69
2022/04/26 12:19:05;;;;;;;;;;;19.90;62.70;;;;;;5011736;28;1540;-69
2022/04/26 12:21:46;;;;;;;;;;;19.80;62.00;;;;;;5011843;28;1972;-71
2022/04/26 12:24:12;;;;;;;;;;;19.90;62.10;;;;;;5013475;28;819;-70
2022/04/26 12:26:57;;;;;;;;;;;19.90;62.20;;;;;;5009974;28;1443;-69
2022/04/26 12:29:26;;;;;;;;;;;19.90;62.10;;;;;;4993186;28;1350;-70
2022/04/26 12:31:52;;;;;;;;;;;19.90;62.10;;;;;;5008588;28;1103;-70
2022/04/26 12:34:24;;;;;;;;;;;19.80;62.10;;;;;;5008344;28;1077;-71
2022/04/26 12:37:03;;;;;;;;;;;19.90;62.20;;;;;;4998249;28;1409;-69
2022/04/26 12:39:38;;;;;;;;;;;19.80;62.20;;;;;;4995240;28;1442;-69
2022/04/26 12:42:03;;;;;;;;;;;19.90;62.20;;;;;;5012981;28;1890;-68
2022/04/26 12:44:29;;;;;;;;;;;19.90;62.20;;;;;;5008351;28;2305;-68
2022/04/26 12:52:49;;;;;;;;;;;19.90;62.30;;;;;;4975335;28;2420;-70
2022/04/26 12:55:28;;;;;;;;;;;19.80;62.20;;;;;;4991877;28;1617;-70
2022/04/26 12:57:54;;;;;;;;;;;19.80;62.30;;;;;;4991164;28;1506;-70
2022/04/26 13:00:22;;;;;;;;;;;19.80;62.30;;;;;;4992003;28;1616;-70
2022/04/26 13:02:48;;;;;;;;;;;19.80;62.40;;;;;;4991970;28;1961;-70
2022/04/26 13:05:15;;;;;;;;;;;19.80;62.30;;;;;;4992158;28;861;-70
2022/04/26 13:07:40;;;;;;;;;;;19.70;62.30;;;;;;4992193;28;1381;-70
2022/04/26 13:10:06;;;;;;;;;;;19.70;62.40;;;;;;4992766;28;1194;-70
2022/04/26 13:12:32;;;;;;;;;;;19.70;62.40;;;;;;4993200;28;798;-70
2022/04/26 13:14:58;;;;;;;;;;;19.70;62.40;;;;;;4991936;28;854;-70
2022/04/26 13:17:24;;;;;;;;;;;19.70;62.40;;;;;;4997913;28;1402;-70
2022/04/26 13:19:49;;;;;;;;;;;19.70;62.50;;;;;;5012205;28;1280;-69
2022/04/26 13:22:16;;;;;;;;;;;19.70;63.40;;;;;;5012613;28;1952;-69
2022/04/26 13:24:41;;;;;;;;;;;19.70;62.70;;;;;;5014749;28;905;-70
2022/04/26 13:27:07;;;;;;;;;;;19.70;62.80;;;;;;5010323;28;1499;-70
2022/04/26 13:29:32;;;;;;;;;;;19.70;62.90;;;;;;4996426;28;1316;-70
2022/04/26 13:31:58;;;;;;;;;;;19.70;63.00;;;;;;5011504;28;1066;-70
2022/04/26 13:34:23;;;;;;;;;;;19.70;63.10;;;;;;4996585;28;799;-70
2022/04/26 13:36:49;;;;;;;;;;;19.70;63.00;;;;;;5014797;28;1563;-70
2022/04/26 13:39:14;;;;;;;;;;;19.70;63.10;;;;;;5014193;28;1241;-70
2022/04/26 13:41:40;;;;;;;;;;;19.70;63.10;;;;;;5001048;28;1907;-70
2022/04/26 13:44:05;;;;;;;;;;;19.70;63.10;;;;;;4993370;28;863;-70
2022/04/26 13:46:31;;;;;;;;;;;19.70;63.10;;;;;;4995758;28;883;-70
2022/04/26 13:48:56;;;;;;;;;;;19.70;63.10;;;;;;4994734;28;1203;-70
2022/04/26 13:51:24;;;;;;;;;;;19.70;63.10;;;;;;4995504;28;876;-70
2022/04/26 13:53:50;;;;;;;;;;;19.70;63.80;;;;;;4993975;28;844;-70
2022/04/26 13:56:15;;;;;;;;;;;19.70;63.00;;;;;;4994221;28;962;-70
2022/04/26 13:58:41;;;;;;;;;;;19.70;63.00;;;;;;4994383;28;1195;-70
2022/04/26 14:01:06;;;;;;;;;;;19.70;62.90;;;;;;4993851;28;928;-70
2022/04/26 14:03:32;;;;;;;;;;;19.70;63.00;;;;;;4995299;28;1934;-70
2022/04/26 14:05:58;;;;;;;;;;;19.70;63.10;;;;;;4995143;28;784;-70
2022/04/26 14:08:23;;;;;;;;;;;19.70;63.10;;;;;;5009305;28;1296;-70
2022/04/26 14:10:49;;;;;;;;;;;19.70;63.10;;;;;;4994962;28;994;-72
2022/04/26 14:13:14;;;;;;;;;;;19.70;63.20;;;;;;4994569;28;914;-71
2022/04/26 14:23:52;;;;;;;;;;;19.70;63.10;;;;;;4998418;28;1564;-71
2022/04/26 14:26:18;;;;;;;;;;;19.70;63.10;;;;;;4995519;28;768;-70
2022/04/26 14:28:44;;;;;;;;;;;19.70;63.00;;;;;;4994458;28;1511;-71
2022/04/26 14:31:09;;;;;;;;;;;19.70;63.10;;;;;;4995417;28;891;-71
2022/04/26 14:33:34;;;;;;;;;;;19.70;63.00;;;;;;4995535;28;1077;-70
2022/04/26 14:36:00;;;;;;;;;;;19.70;63.30;;;;;;4995174;28;1081;-71
2022/04/26 14:38:26;;;;;;;;;;;19.70;63.30;;;;;;4994683;28;1513;-71
2022/04/26 14:40:52;;;;;;;;;;;19.70;63.30;;;;;;4995206;28;891;-71
2022/04/26 14:43:18;;;;;;;;;;;19.70;63.40;;;;;;4995064;28;1969;-71
2022/04/26 14:45:45;;;;;;;;;;;19.70;63.40;;;;;;4995199;28;845;-70
2022/04/26 14:48:11;;;;;;;;;;;19.70;63.50;;;;;;4994213;28;1190;-70
2022/04/26 14:50:37;;;;;;;;;;;19.70;63.40;;;;;;4994797;28;864;-71
2022/04/26 14:53:02;;;;;;;;;;;19.60;63.20;;;;;;4994936;28;808;-71
2022/04/26 14:55:28;;;;;;;;;;;19.60;63.40;;;;;;4994917;28;1006;-71
2022/04/26 14:57:53;;;;;;;;;;;19.60;63.50;;;;;;4994162;28;1204;-71
2022/04/26 15:00:19;;;;;;;;;;;19.60;63.50;;;;;;4994873;28;788;-71
2022/04/26 15:02:44;;;;;;;;;;;19.60;63.60;;;;;;4994735;28;1948;-71
2022/04/26 15:05:10;;;;;;;;;;;19.60;63.60;;;;;;5009977;28;776;-71
2022/04/26 15:10:19;;;;;;;;;;;19.50;63.70;;;;;;5007614;28;825;-70
2022/04/26 15:18:15;;;;;;;;;;;19.60;63.80;;;;;;5005872;28;1618;-72
2022/04/26 15:20:48;;;;;;;;;;;19.60;63.70;;;;;;5013990;28;895;-70
2022/04/26 15:23:15;;;;;;;;;;;19.60;63.70;;;;;;5012678;28;1961;-70
2022/04/26 15:25:40;;;;;;;;;;;19.60;64.60;;;;;;5014089;28;919;-72
2022/04/26 15:28:06;;;;;;;;;;;19.60;64.00;;;;;;4998689;28;1878;-72
2022/04/26 15:30:32;;;;;;;;;;;19.60;64.00;;;;;;5005636;28;2197;-71
2022/04/26 15:32:57;;;;;;;;;;;19.60;64.10;;;;;;4988673;28;1601;-71
2022/04/26 15:35:22;;;;;;;;;;;19.60;64.00;;;;;;4990674;28;1498;-71
2022/04/26 15:37:48;;;;;;;;;;;19.60;64.00;;;;;;4994937;28;1513;-73
2022/04/26 15:40:13;;;;;;;;;;;19.60;64.00;;;;;;4994047;28;1350;-73
2022/04/26 15:42:39;;;;;;;;;;;19.60;64.10;;;;;;4994025;28;1954;-73
2022/04/26 15:45:05;;;;;;;;;;;19.60;64.10;;;;;;4994039;28;823;-73
2022/04/26 15:47:30;;;;;;;;;;;19.60;64.20;;;;;;4993119;28;1096;-73
2022/04/26 15:49:55;;;;;;;;;;;19.60;64.10;;;;;;4992797;28;1302;-72
2022/04/26 15:52:21;;;;;;;;;;;19.60;64.10;;;;;;4992916;28;838;-74
2022/04/26 15:54:46;;;;;;;;;;;19.60;64.20;;;;;;4993884;28;855;-73
2022/04/26 15:57:12;;;;;;;;;;;19.60;64.20;;;;;;4993379;28;911;-73
2022/04/26 15:59:38;;;;;;;;;;;19.60;64.10;;;;;;4993782;28;1278;-74
2022/04/26 16:02:04;;;;;;;;;;;19.60;64.20;;;;;;4993132;28;1991;-74
2022/04/26 16:04:29;;;;;;;;;;;19.60;64.10;;;;;;4990760;28;2218;-71
2022/04/26 16:06:55;;;;;;;;;;;19.60;64.30;;;;;;4992776;28;1198;-73
2022/04/26 16:20:29;;;;;;;;;;;19.40;58.50;;;;;;4982480;28;1074;-71
2022/04/26 16:22:55;;;;;;;;;;;19.40;57.80;;;;;;4985978;28;1907;-71
2022/04/26 16:25:20;;;;;;;;;;;19.30;57.50;;;;;;4981709;28;1279;-72
2022/04/26 16:27:48;;;;;;;;;;;19.30;57.20;;;;;;4984471;28;1260;-71
2022/04/26 16:30:14;;;;;;;;;;;19.30;56.50;;;;;;4980267;28;1218;-72
2022/04/26 16:32:40;;;;;;;;;;;19.30;56.00;;;;;;4973478;28;836;-72
2022/04/26 16:35:06;;;;;;;;;;;19.20;55.20;;;;;;4972613;28;852;-73
2022/04/26 16:37:32;;;;;;;;;;;19.20;54.80;;;;;;4994386;28;1092;-71
2022/04/26 16:39:57;;;;;;;;;;;19.20;53.80;;;;;;5011794;28;1228;-71
2022/04/26 16:42:23;;;;;;;;;;;19.20;53.20;;;;;;4991395;28;1894;-72
2022/04/26 16:44:48;;;;;;;;;;;19.20;53.10;;;;;;5003244;28;1267;-69
2022/04/26 16:47:14;;;;;;;;;;;19.20;52.90;;;;;;4984947;28;1168;-69
2022/04/26 16:49:39;;;;;;;;;;;19.10;53.20;;;;;;4991488;28;1233;-69
2022/04/26 16:52:05;;;;;;;;;;;19.10;51.30;;;;;;4992208;28;784;-70
2022/04/26 16:54:30;;;;;;;;;;;19.10;51.40;;;;;;4989761;28;1015;-69
2022/04/26 16:56:56;;;;;;;;;;;19.10;51.70;;;;;;4991393;28;1144;-72
2022/04/26 16:59:22;;;;;;;;;;;19.10;51.20;;;;;;4993546;28;1312;-68
2022/04/26 17:01:48;;;;;;;;;;;19.10;50.90;;;;;;4996096;28;1902;-71
2022/04/26 17:04:14;;;;;;;;;;;19.10;50.60;;;;;;4995699;28;823;-73
2022/04/26 17:06:39;;;;;;;;;;;19.10;50.20;;;;;;4990411;28;1881;-69
2022/04/26 17:09:05;;;;;;;;;;;19.10;49.70;;;;;;4993164;28;1779;-68
2022/04/26 17:11:42;;;;;;;;;;;19.10;49.70;;;;;;4988475;28;1563;-71
2022/04/26 17:14:10;;;;;;;;;;;19.20;49.50;;;;;;4994149;28;1493;-70
2022/04/26 17:16:35;;;;;;;;;;;19.20;49.10;;;;;;4993349;28;1483;-71
2022/04/26 17:19:01;;;;;;;;;;;19.20;48.60;;;;;;4978900;28;2253;-70
2022/04/26 17:21:26;;;;;;;;;;;19.20;48.30;;;;;;4992740;28;1167;-70
2022/04/26 17:23:52;;;;;;;;;;;19.20;47.90;;;;;;4992014;28;1962;-69
2022/04/26 17:26:20;;;;;;;;;;;19.20;48.20;;;;;;4985280;28;1044;-70
2022/04/26 17:28:45;;;;;;;;;;;19.20;47.90;;;;;;4989238;28;1894;-70
2022/04/26 17:31:11;;;;;;;;;;;19.20;47.90;;;;;;4988981;28;1926;-71
2022/04/26 17:33:39;;;;;;;;;;;19.20;47.90;;;;;;4992029;28;1535;-70
2022/04/26 17:36:05;;;;;;;;;;;19.20;47.80;;;;;;4995714;28;1256;-69
2022/04/26 17:38:31;;;;;;;;;;;19.20;47.80;;;;;;4995525;28;1408;-70
2022/04/26 17:40:56;;;;;;;;;;;19.30;47.80;;;;;;5000968;28;1588;-70
2022/04/26 17:43:21;;;;;;;;;;;19.20;47.60;;;;;;4990387;28;1910;-71
2022/04/26 17:45:47;;;;;;;;;;;19.30;47.70;;;;;;4994121;28;1440;-71
2022/04/26 17:48:13;;;;;;;;;;;19.20;47.60;;;;;;4995139;28;1352;-69
2022/04/26 17:50:39;;;;;;;;;;;19.20;47.50;;;;;;4995517;28;1189;-70
2022/04/26 17:58:34;;;;;;;;;;;19.30;46.80;;;;;;4994317;28;1397;-70
2022/04/26 18:01:00;;;;;;;;;;;19.20;46.70;;;;;;4994940;28;1602;-70
2022/04/26 18:03:26;;;;;;;;;;;19.20;46.50;;;;;;4995357;28;1902;-71
2022/04/26 18:05:51;;;;;;;;;;;19.20;46.90;;;;;;4995488;28;1314;-70
2022/04/26 18:08:17;;;;;;;;;;;19.20;46.30;;;;;;4994730;28;1389;-70
2022/04/26 18:10:42;;;;;;;;;;;19.20;45.90;;;;;;4993914;28;1311;-70
2022/04/26 18:13:08;;;;;;;;;;;19.20;46.10;;;;;;4994681;28;1305;-70
2022/04/26 18:15:34;;;;;;;;;;;19.20;45.70;;;;;;4994805;28;1660;-69
2022/04/26 18:17:59;;;;;;;;;;;19.20;45.70;;;;;;4994468;28;1332;-70
2022/04/26 18:20:25;;;;;;;;;;;19.20;45.40;;;;;;4992515;28;1474;-69
2022/04/26 18:22:50;;;;;;;;;;;19.20;45.50;;;;;;4994649;28;1906;-69
2022/04/26 18:26:10;;;;;;;;;;;19.20;45.30;;;;;;4995220;28;1519;-70
2022/04/26 18:28:01;;;;;;;;;;;19.20;45.00;;;;;;4985675;28;1284;-69
2022/04/26 18:30:27;;;;;;;;;;;19.20;45.10;;;;;;4994312;28;1114;-69
2022/04/26 18:32:52;;;;;;;;;;;19.20;44.90;;;;;;4995333;28;1292;-70
2022/04/26 18:35:18;;;;;;;;;;;19.20;44.80;;;;;;4994743;28;1435;-72
2022/04/26 18:37:44;;;;;;;;;;;19.20;44.80;;;;;;4996175;28;1424;-72
2022/04/26 18:40:10;;;;;;;;;;;19.20;44.80;;;;;;4990675;28;1201;-70
2022/04/26 18:42:36;;;;;;;;;;;19.20;44.80;;;;;;4994244;28;1966;-72
2022/04/26 18:45:01;;;;;;;;;;;19.20;44.70;;;;;;4989833;28;1096;-72
2022/04/26 18:47:26;;;;;;;;;;;19.20;44.70;;;;;;4994287;28;1286;-70
2022/04/26 18:49:52;;;;;;;;;;;19.20;44.70;;;;;;4993989;28;1359;-70
2022/04/26 18:52:18;;;;;;;;;;;19.20;44.60;;;;;;4994716;28;1283;-70
2022/04/26 18:54:43;;;;;;;;;;;19.20;44.80;;;;;;4994446;28;1300;-70
2022/04/26 18:57:09;;;;;;;;;;;19.20;45.20;;;;;;4993413;28;1093;-70
2022/04/26 18:59:34;;;;;;;;;;;19.20;45.00;;;;;;4993224;28;1368;-69
2022/04/26 19:02:00;;;;;;;;;;;19.20;44.90;;;;;;4993874;28;1890;-70
2022/04/26 19:04:25;;;;;;;;;;;19.20;44.90;;;;;;4994468;28;1352;-70